Time;durP1;ratioP1;P1;durP2;ratioP2;P2;SDS_P1;SDS_P2;PMS_P1;PMS_P2;Temp;Humidity;BMP_temperature;BMP_pressure;BME280_temperature;BME280_humidity;BME280_pressure;Samples;Min_cycle;Max_cycle;Signal;HPM_P1;HPM_P2
2024/02/26 00:01:40;;;;;;;;;;;;;;;7.86;100.00;100227.50;4992945;28;19925;-68
2024/02/26 00:04:05;;;;;;;;;;;;;;;7.78;100.00;100220.34;4992274;28;19917;-72
2024/02/26 00:06:31;;;;;;;;;;;;;;;7.73;100.00;100215.81;4992221;28;20385;-70
2024/02/26 00:08:56;;;;;;;;;;;;;;;7.65;100.00;100217.16;4991227;28;20009;-71
2024/02/26 00:11:22;;;;;;;;;;;;;;;7.70;100.00;100208.84;4992930;28;19928;-73
2024/02/26 00:13:47;;;;;;;;;;;;;;;7.73;100.00;100211.53;4991044;28;19922;-70
2024/02/26 00:16:12;;;;;;;;;;;;;;;7.74;100.00;100208.16;4991402;28;19922;-70
2024/02/26 00:18:38;;;;;;;;;;;;;;;7.77;100.00;100207.41;4992762;28;19984;-70
2024/02/26 00:21:03;;;;;;;;;;;;;;;7.82;100.00;100198.22;4992958;28;19953;-71
2024/02/26 00:23:29;;;;;;;;;;;;;;;7.86;100.00;100200.13;4981043;28;20317;-76
2024/02/26 00:25:54;;;;;;;;;;;;;;;7.90;100.00;100206.25;4991101;28;19917;-72
2024/02/26 00:28:20;;;;;;;;;;;;;;;7.87;100.00;100204.44;4979103;28;19926;-72
2024/02/26 00:30:46;;;;;;;;;;;;;;;7.82;100.00;100197.34;4993177;28;19921;-72
2024/02/26 00:33:12;;;;;;;;;;;;;;;7.78;100.00;100196.34;4992251;28;19917;-72
2024/02/26 00:35:37;;;;;;;;;;;;;;;7.78;100.00;100189.50;4992257;28;19918;-72
2024/02/26 00:38:03;;;;;;;;;;;;;;;7.86;100.00;100186.38;4991949;28;19941;-74
2024/02/26 00:40:28;;;;;;;;;;;;;;;7.99;100.00;100185.22;4992024;28;19918;-74
2024/02/26 00:42:54;;;;;;;;;;;;;;;8.14;100.00;100184.97;4991089;28;19925;-73
2024/02/26 00:45:19;;;;;;;;;;;;;;;8.25;100.00;100178.63;4991964;28;19968;-69
2024/02/26 00:47:47;;;;;;;;;;;;;;;8.28;100.00;100175.28;4992373;28;20009;-72
2024/02/26 00:50:12;;;;;;;;;;;;;;;8.39;100.00;100172.34;4991996;28;19914;-71
2024/02/26 00:52:37;;;;;;;;;;;;;;;8.34;100.00;100172.97;4991883;28;19924;-74
2024/02/26 00:55:03;;;;;;;;;;;;;;;8.38;100.00;100172.28;4991754;28;19932;-70
2024/02/26 00:57:28;;;;;;;;;;;;;;;8.32;100.00;100172.03;4992040;28;19918;-74
2024/02/26 00:59:56;;;;;;;;;;;;;;;8.38;100.00;100178.28;4992999;28;19917;-71
2024/02/26 01:02:21;;;;;;;;;;;;;;;8.32;100.00;100169.44;4991870;28;19924;-71
2024/02/26 01:04:47;;;;;;;;;;;;;;;8.15;100.00;100179.03;4990503;28;19922;-72
2024/02/26 01:07:12;;;;;;;;;;;;;;;8.19;100.00;100168.06;4991557;28;19917;-71
2024/02/26 01:09:37;;;;;;;;;;;;;;;8.02;100.00;100172.50;4975244;28;19963;-71
2024/02/26 01:12:03;;;;;;;;;;;;;;;7.86;100.00;100169.28;4990043;28;20000;-70
2024/02/26 01:14:28;;;;;;;;;;;;;;;7.72;100.00;100170.38;4991669;28;19924;-70
2024/02/26 01:16:54;;;;;;;;;;;;;;;7.69;100.00;100168.56;4991462;28;20440;-70
2024/02/26 01:19:19;;;;;;;;;;;;;;;7.67;100.00;100166.72;4991314;28;19929;-68
2024/02/26 01:21:44;;;;;;;;;;;;;;;7.68;100.00;100168.50;4991226;28;19918;-71
2024/02/26 01:24:10;;;;;;;;;;;;;;;7.59;100.00;100166.41;4991381;28;19926;-71
2024/02/26 01:26:35;;;;;;;;;;;;;;;7.50;100.00;100163.41;4990941;28;20363;-72
2024/02/26 01:29:01;;;;;;;;;;;;;;;7.54;100.00;100166.19;4989520;28;19918;-72
2024/02/26 01:31:26;;;;;;;;;;;;;;;7.62;100.00;100153.66;4982015;28;20369;-73
2024/02/26 01:33:52;;;;;;;;;;;;;;;7.67;100.00;100153.88;4991292;28;20396;-71
2024/02/26 01:36:18;;;;;;;;;;;;;;;7.53;100.00;100153.28;4990899;28;19945;-71
2024/02/26 01:38:43;;;;;;;;;;;;;;;7.34;100.00;100159.28;4990494;28;19968;-73
2024/02/26 01:41:08;;;;;;;;;;;;;;;7.26;100.00;100152.13;4991411;28;19917;-70
2024/02/26 01:43:34;;;;;;;;;;;;;;;7.33;100.00;100150.69;4974496;28;19918;-72
2024/02/26 01:45:59;;;;;;;;;;;;;;;7.46;100.00;100157.25;4989387;28;19918;-71
2024/02/26 01:48:25;;;;;;;;;;;;;;;7.51;100.00;100147.19;4973263;28;20004;-70
2024/02/26 01:50:51;;;;;;;;;;;;;;;7.52;100.00;100147.25;4990712;28;19917;-69
2024/02/26 01:53:17;;;;;;;;;;;;;;;7.38;100.00;100149.22;4991460;28;19921;-72
2024/02/26 01:55:42;;;;;;;;;;;;;;;7.47;100.00;100159.00;4990983;28;19943;-70
2024/02/26 01:58:07;;;;;;;;;;;;;;;7.44;100.00;100153.75;4990688;28;19918;-70
2024/02/26 02:00:33;;;;;;;;;;;;;;;7.46;100.00;100149.53;4990544;28;19917;-70
2024/02/26 02:02:58;;;;;;;;;;;;;;;7.44;100.00;100130.63;4974123;28;19922;-73
2024/02/26 02:05:24;;;;;;;;;;;;;;;7.47;100.00;100143.59;4990458;28;19928;-69
2024/02/26 02:07:51;;;;;;;;;;;;;;;6.88;100.00;100061.44;4990354;28;19929;-70
2024/02/26 02:10:18;;;;;;;;;;;;;;;7.31;100.00;100141.16;4990679;28;19921;-69
2024/02/26 02:12:43;;;;;;;;;;;;;;;7.43;100.00;100150.28;4991061;28;19914;-70
2024/02/26 02:15:09;;;;;;;;;;;;;;;7.51;100.00;100145.47;4990471;28;20266;-71
2024/02/26 02:17:34;;;;;;;;;;;;;;;7.61;100.00;100151.91;4990321;28;20483;-71
2024/02/26 02:19:59;;;;;;;;;;;;;;;7.71;100.00;100146.38;4989091;28;20325;-71
2024/02/26 02:22:25;;;;;;;;;;;;;;;7.59;100.00;100144.16;4990374;28;19922;-70
2024/02/26 02:24:52;;;;;;;;;;;;;;;7.50;100.00;100143.75;4990416;28;20056;-70
2024/02/26 02:27:17;;;;;;;;;;;;;;;7.42;100.00;100151.09;4990512;28;19922;-70
2024/02/26 02:29:43;;;;;;;;;;;;;;;7.41;100.00;100146.78;4990060;28;19926;-71
2024/02/26 02:32:08;;;;;;;;;;;;;;;7.33;100.00;100149.81;4990276;28;19984;-72
2024/02/26 02:34:34;;;;;;;;;;;;;;;7.21;100.00;100143.31;4990738;28;19914;-70
2024/02/26 02:36:59;;;;;;;;;;;;;;;7.20;100.00;100149.28;4967803;28;20389;-70
2024/02/26 02:39:25;;;;;;;;;;;;;;;7.10;100.00;100145.41;4968245;28;20564;-71
2024/02/26 02:41:50;;;;;;;;;;;;;;;7.07;100.00;100144.38;4968132;28;19918;-71
2024/02/26 02:44:15;;;;;;;;;;;;;;;6.99;100.00;100133.78;4968787;28;20404;-75
2024/02/26 02:46:40;;;;;;;;;;;;;;;7.02;100.00;100139.03;4968307;28;19922;-72
2024/02/26 02:49:10;;;;;;;;;;;;;;;7.11;100.00;100139.44;4967898;28;19921;-72
2024/02/26 02:51:35;;;;;;;;;;;;;;;7.25;100.00;100141.75;4968619;28;19984;-70
2024/02/26 02:54:01;;;;;;;;;;;;;;;7.18;100.00;100134.59;4968937;28;20475;-71
2024/02/26 02:56:26;;;;;;;;;;;;;;;7.11;100.00;100139.44;4969142;28;20551;-71
2024/02/26 02:58:52;;;;;;;;;;;;;;;7.01;100.00;100142.41;4968326;28;19924;-69
2024/02/26 03:01:17;;;;;;;;;;;;;;;6.89;100.00;100145.31;4969318;28;19960;-71
2024/02/26 03:03:42;;;;;;;;;;;;;;;6.63;100.00;100097.91;4984210;28;19918;-71
2024/02/26 03:06:08;;;;;;;;;;;;;;;6.90;100.00;100139.38;4974076;28;19922;-73
2024/02/26 03:08:36;;;;;;;;;;;;;;;6.95;100.00;100139.56;4974618;28;19973;-72
2024/02/26 03:11:02;;;;;;;;;;;;;;;6.96;100.00;100137.06;4974787;28;20057;-71
2024/02/26 03:13:27;;;;;;;;;;;;;;;7.00;100.00;100140.63;4976888;28;20011;-70
2024/02/26 03:15:52;;;;;;;;;;;;;;;6.98;100.00;100137.16;4996445;28;19914;-69
2024/02/26 03:18:17;;;;;;;;;;;;;;;6.89;100.00;100131.56;4996579;28;20505;-72
2024/02/26 03:20:43;;;;;;;;;;;;;;;6.92;100.00;100132.59;4996420;28;20382;-70
2024/02/26 03:23:11;;;;;;;;;;;;;;;6.86;100.00;100134.00;4996775;28;20666;-72
2024/02/26 03:25:38;;;;;;;;;;;;;;;6.77;100.00;100137.91;4983251;28;20008;-70
2024/02/26 03:28:04;;;;;;;;;;;;;;;6.70;100.00;100130.72;4997159;28;20017;-70
2024/02/26 03:30:29;;;;;;;;;;;;;;;6.63;100.00;100124.44;4996852;28;20016;-69
2024/02/26 03:32:54;;;;;;;;;;;;;;;6.61;100.00;100130.28;4996151;28;19964;-70
2024/02/26 03:35:20;;;;;;;;;;;;;;;6.68;100.00;100128.88;4996806;28;19917;-71
2024/02/26 03:37:50;;;;;;;;;;;;;;;6.72;100.00;100120.53;4996753;28;19941;-71
2024/02/26 03:40:15;;;;;;;;;;;;;;;6.76;100.00;100125.88;4994116;28;20304;-70
2024/02/26 03:42:40;;;;;;;;;;;;;;;6.86;100.00;100126.31;4996227;28;19917;-69
2024/02/26 03:45:26;;;;;;;;;;;;;;;6.85;100.00;100124.56;4996722;28;20406;-71
2024/02/26 03:47:52;;;;;;;;;;;;;;;6.87;100.00;100122.94;5001556;28;20036;-71
2024/02/26 03:50:17;;;;;;;;;;;;;;;6.91;100.00;100120.56;5003377;28;20004;-70
2024/02/26 03:52:42;;;;;;;;;;;;;;;7.00;100.00;100129.50;5006520;28;19924;-70
2024/02/26 03:55:08;;;;;;;;;;;;;;;7.07;100.00;100127.28;4997672;28;19918;-69
2024/02/26 03:57:33;;;;;;;;;;;;;;;7.10;100.00;100139.38;5002961;28;19968;-70
2024/02/26 03:59:58;;;;;;;;;;;;;;;7.06;100.00;100135.78;5003108;28;19918;-73
2024/02/26 04:02:25;;;;;;;;;;;;;;;6.86;100.00;100126.31;4988280;28;19917;-70
2024/02/26 04:04:50;;;;;;;;;;;;;;;6.70;100.00;100130.72;4973233;28;19917;-70
2024/02/26 04:07:16;;;;;;;;;;;;;;;6.60;100.00;100131.09;5002994;28;19921;-70
2024/02/26 04:09:42;;;;;;;;;;;;;;;6.51;100.00;100133.22;5004721;28;19925;-72
2024/02/26 04:12:08;;;;;;;;;;;;;;;6.50;100.00;100131.47;5000890;28;20372;-70
2024/02/26 04:14:33;;;;;;;;;;;;;;;6.57;100.00;100129.25;5004795;28;20016;-72
2024/02/26 04:16:59;;;;;;;;;;;;;;;6.63;100.00;100127.00;5003726;28;19976;-69
2024/02/26 04:19:24;;;;;;;;;;;;;;;6.70;100.00;100129.84;4993887;28;19930;-70
2024/02/26 04:21:49;;;;;;;;;;;;;;;6.76;100.00;100127.56;4993163;28;19975;-70
2024/02/26 04:24:16;;;;;;;;;;;;;;;6.76;100.00;100123.31;4992505;28;19917;-70
2024/02/26 04:26:41;;;;;;;;;;;;;;;6.62;100.00;100125.22;4993260;28;20420;-69
2024/02/26 04:29:07;;;;;;;;;;;;;;;6.63;100.00;100118.44;4993430;28;19953;-71
2024/02/26 04:31:32;;;;;;;;;;;;;;;6.69;100.00;100120.38;4992764;28;19922;-70
2024/02/26 04:33:58;;;;;;;;;;;;;;;6.66;100.00;100125.38;4993051;28;19928;-70
2024/02/26 04:36:25;;;;;;;;;;;;;;;6.57;100.00;100125.84;4992689;28;20323;-69
2024/02/26 04:38:51;;;;;;;;;;;;;;;6.39;100.00;100123.25;4992284;28;19918;-68
2024/02/26 04:41:16;;;;;;;;;;;;;;;6.41;100.00;100126.78;4993646;28;19941;-75
2024/02/26 04:43:42;;;;;;;;;;;;;;;6.49;100.00;100120.31;4992450;28;19924;-70
2024/02/26 04:46:08;;;;;;;;;;;;;;;6.61;100.00;100127.72;4992808;28;20016;-73
2024/02/26 04:48:33;;;;;;;;;;;;;;;6.64;100.00;100123.63;4992838;28;20574;-71
2024/02/26 04:50:59;;;;;;;;;;;;;;;6.67;100.00;100124.56;4992831;28;19921;-69
2024/02/26 04:53:24;;;;;;;;;;;;;;;6.70;100.00;100124.72;4992621;28;19917;-73
2024/02/26 04:55:49;;;;;;;;;;;;;;;6.76;100.00;100123.31;4992255;28;19918;-70
2024/02/26 04:58:15;;;;;;;;;;;;;;;6.78;100.00;100125.97;4998831;28;20016;-71
2024/02/26 05:00:41;;;;;;;;;;;;;;;6.76;100.00;100123.31;4992060;28;20380;-70
2024/02/26 05:03:07;;;;;;;;;;;;;;;6.75;100.00;100126.69;4992901;28;20383;-72
2024/02/26 05:05:33;;;;;;;;;;;;;;;6.65;100.00;100129.63;4992049;28;19918;-70
2024/02/26 05:07:58;;;;;;;;;;;;;;;6.61;100.00;100125.16;4992282;28;19917;-70
2024/02/26 05:10:23;;;;;;;;;;;;;;;6.51;100.00;100120.41;4991707;28;20004;-70
2024/02/26 05:12:49;;;;;;;;;;;;;;;6.51;100.00;100126.41;4991784;28;19952;-70
2024/02/26 05:15:18;;;;;;;;;;;;;;;6.58;100.00;100128.47;4992111;28;19949;-70
2024/02/26 05:17:43;;;;;;;;;;;;;;;6.62;100.00;100117.53;4992093;28;19979;-70
2024/02/26 05:20:09;;;;;;;;;;;;;;;6.69;100.00;100122.94;4991921;28;20344;-70
2024/02/26 05:22:34;;;;;;;;;;;;;;;6.71;100.00;100129.03;4992129;28;20377;-70
2024/02/26 05:24:59;;;;;;;;;;;;;;;6.80;100.00;100127.78;4991597;28;19967;-70
2024/02/26 05:27:25;;;;;;;;;;;;;;;6.86;100.00;100136.59;4991183;28;20321;-70
2024/02/26 05:30:10;;;;;;;;;;;;;;;6.96;100.00;100133.63;4977513;28;19921;-70
2024/02/26 05:32:36;;;;;;;;;;;;;;;6.97;100.00;100136.25;4950306;29;20089;-72
2024/02/26 05:35:03;;;;;;;;;;;;;;;7.06;100.00;100140.06;4950497;29;19918;-71
2024/02/26 05:37:29;;;;;;;;;;;;;;;7.07;100.00;100146.97;4950577;29;19929;-70
2024/02/26 05:39:54;;;;;;;;;;;;;;;7.11;100.00;100143.72;4951355;29;19927;-72
2024/02/26 05:42:20;;;;;;;;;;;;;;;7.10;100.00;100147.06;4950253;29;19949;-73
2024/02/26 05:44:45;;;;;;;;;;;;;;;7.12;100.00;100153.19;4950226;29;19918;-69
2024/02/26 05:47:10;;;;;;;;;;;;;;;7.08;100.00;100157.28;4950255;29;19929;-70
2024/02/26 05:49:36;;;;;;;;;;;;;;;7.00;100.00;100147.47;4950945;28;20013;-74
2024/02/26 05:52:01;;;;;;;;;;;;;;;6.94;100.00;100150.63;4949565;29;19922;-70
2024/02/26 05:54:27;;;;;;;;;;;;;;;6.90;100.00;100154.75;4950602;29;19971;-71
2024/02/26 05:56:52;;;;;;;;;;;;;;;6.89;100.00;100155.56;4948959;28;20326;-70
2024/02/26 05:59:18;;;;;;;;;;;;;;;6.89;100.00;100152.09;4948965;29;19923;-70
2024/02/26 06:01:43;;;;;;;;;;;;;;;6.90;100.00;100154.75;4949567;29;20022;-70
2024/02/26 06:04:08;;;;;;;;;;;;;;;6.96;100.00;100152.44;4979857;28;20352;-70
2024/02/26 06:06:34;;;;;;;;;;;;;;;6.99;100.00;100150.84;4991152;28;19922;-70
2024/02/26 06:08:59;;;;;;;;;;;;;;;7.06;100.00;100155.47;4985934;28;19917;-70
2024/02/26 06:11:24;;;;;;;;;;;;;;;7.08;100.00;100153.84;4989758;28;19918;-71
2024/02/26 06:13:50;;;;;;;;;;;;;;;7.16;100.00;100154.19;4990927;28;19925;-68
2024/02/26 06:16:15;;;;;;;;;;;;;;;7.20;100.00;100156.09;4989126;28;19917;-71
2024/02/26 06:18:41;;;;;;;;;;;;;;;7.24;100.00;100153.72;4982739;28;19952;-70
2024/02/26 06:21:09;;;;;;;;;;;;;;;7.33;100.00;100160.06;4987337;28;19918;-75
2024/02/26 06:23:34;;;;;;;;;;;;;;;7.43;100.00;100168.28;4985407;28;19971;-69
2024/02/26 06:25:59;;;;;;;;;;;;;;;7.51;100.00;100160.91;4988552;28;19933;-70
2024/02/26 06:28:25;;;;;;;;;;;;;;;7.63;100.00;100157.09;4986220;28;19918;-70
2024/02/26 06:30:52;;;;;;;;;;;;;;;7.71;100.00;100158.34;4989357;28;20012;-69
2024/02/26 06:33:17;;;;;;;;;;;;;;;7.75;100.00;100167.91;4990788;28;19917;-69
2024/02/26 06:35:43;;;;;;;;;;;;;;;7.78;100.00;100175.78;4990411;28;19941;-70
2024/02/26 06:38:11;;;;;;;;;;;;;;;7.79;100.00;100169.84;4990421;28;19952;-71
2024/02/26 06:40:36;;;;;;;;;;;;;;;7.86;100.00;100160.69;4989974;28;20400;-67
2024/02/26 06:43:02;;;;;;;;;;;;;;;7.88;100.00;100159.94;4990642;28;20121;-70
2024/02/26 06:45:27;;;;;;;;;;;;;;;7.86;100.00;100170.97;4990215;28;20309;-69
2024/02/26 06:47:52;;;;;;;;;;;;;;;7.89;100.00;100173.69;4989776;28;19918;-72
2024/02/26 06:50:18;;;;;;;;;;;;;;;7.93;100.00;100171.28;4990409;28;19964;-68
2024/02/26 06:52:44;;;;;;;;;;;;;;;8.01;100.00;100170.75;4990911;28;19914;-71
2024/02/26 06:55:09;;;;;;;;;;;;;;;8.08;100.00;100177.91;4989462;28;19917;-69
2024/02/26 06:57:35;;;;;;;;;;;;;;;8.10;100.00;100173.72;4990308;28;19985;-69
2024/02/26 07:00:00;;;;;;;;;;;;;;;8.17;100.00;100178.28;4989073;28;19925;-69
2024/02/26 07:02:27;;;;;;;;;;;;;;;8.23;100.00;100170.81;4991009;28;19920;-68
2024/02/26 07:04:52;;;;;;;;;;;;;;;8.20;100.00;100168.13;4990080;28;19921;-69
2024/02/26 07:07:18;;;;;;;;;;;;;;;8.12;100.00;100181.50;4989869;28;20392;-71
2024/02/26 07:09:44;;;;;;;;;;;;;;;8.09;100.00;100187.38;4986823;28;19924;-71
2024/02/26 07:12:09;;;;;;;;;;;;;;;8.10;100.00;100186.56;4989777;28;20381;-70
2024/02/26 07:14:35;;;;;;;;;;;;;;;8.12;100.00;100190.06;4990086;28;19918;-67
2024/02/26 07:17:00;;;;;;;;;;;;;;;8.24;100.00;100192.28;4991011;28;19933;-68
2024/02/26 07:19:25;;;;;;;;;;;;;;;8.39;100.00;100192.03;5011784;28;20013;-70
2024/02/26 07:21:51;;;;;;;;;;;;;;;8.49;100.00;100195.91;4990439;28;19918;-70
2024/02/26 07:24:16;;;;;;;;;;;;;;;8.54;100.00;100192.69;4992044;28;19921;-70
2024/02/26 07:26:41;;;;;;;;;;;;;;;8.61;100.00;100195.50;4989275;28;19967;-70
2024/02/26 07:29:07;;;;;;;;;;;;;;;8.61;100.00;100193.84;4989908;28;19918;-70
2024/02/26 07:31:32;;;;;;;;;;;;;;;8.62;100.00;100189.56;4989770;28;19918;-68
2024/02/26 07:33:57;;;;;;;;;;;;;;;8.66;100.00;100199.16;4989946;28;19981;-70
2024/02/26 07:36:23;;;;;;;;;;;;;;;8.70;100.00;100195.91;4989781;28;20508;-71
2024/02/26 07:38:48;;;;;;;;;;;;;;;8.76;100.00;100202.97;4989658;28;19929;-71
2024/02/26 07:41:13;;;;;;;;;;;;;;;8.78;100.00;100212.50;4990391;28;20395;-73
2024/02/26 07:43:39;;;;;;;;;;;;;;;8.79;100.00;100206.56;4989634;28;19929;-71
2024/02/26 07:46:04;;;;;;;;;;;;;;;8.81;100.00;100206.59;4989638;28;20388;-71
2024/02/26 07:48:29;;;;;;;;;;;;;;;8.87;100.00;100202.59;4988402;28;20012;-71
2024/02/26 07:50:56;;;;;;;;;;;;;;;8.94;100.00;100208.84;4990651;28;20024;-71
2024/02/26 07:53:21;;;;;;;;;;;;;;;9.00;100.00;100200.50;4992862;28;20381;-70
2024/02/26 07:55:47;;;;;;;;;;;;;;;9.04;100.00;100205.81;4992417;28;19924;-71
2024/02/26 07:58:12;;;;;;;;;;;;;;;9.10;100.00;100192.31;4993664;28;20332;-72
2024/02/26 08:00:37;;;;;;;;;;;;;;;9.04;100.00;100176.63;4992839;28;19924;-71
2024/02/26 08:03:03;;;;;;;;;;;;;;;9.00;100.00;100177.34;4991669;28;19981;-71
2024/02/26 08:05:28;;;;;;;;;;;;;;;8.89;100.00;100169.19;4987984;28;20297;-68
2024/02/26 08:07:54;;;;;;;;;;;;;;;8.94;100.00;100162.50;4992585;28;20412;-69
2024/02/26 08:10:20;;;;;;;;;;;;;;;8.97;100.00;100182.34;4992826;28;19917;-70
2024/02/26 08:12:45;;;;;;;;;;;;;;;9.03;100.00;100192.88;4993217;28;19944;-70
2024/02/26 08:15:11;;;;;;;;;;;;;;;9.11;100.00;100168.31;4993223;28;19983;-69
2024/02/26 08:17:36;;;;;;;;;;;;;;;9.18;100.00;100166.84;4993069;28;20425;-70
2024/02/26 08:20:02;;;;;;;;;;;;;;;9.21;100.00;100172.97;4992973;28;20419;-69
2024/02/26 08:22:28;;;;;;;;;;;;;;;9.32;100.00;100168.25;4992948;28;19918;-74
2024/02/26 08:24:53;;;;;;;;;;;;;;;9.36;100.00;100171.81;4993245;28;20424;-72
2024/02/26 08:27:19;;;;;;;;;;;;;;;9.48;100.00;100176.53;4993198;28;19918;-69
2024/02/26 08:29:44;;;;;;;;;;;;;;;9.65;100.00;100172.00;4993218;28;19921;-70
2024/02/26 08:32:09;;;;;;;;;;;;;;;9.79;100.00;100175.06;4993052;28;20028;-69
2024/02/26 08:34:36;;;;;;;;;;;;;;;9.86;100.00;100183.06;4992995;28;20004;-69
2024/02/26 08:37:01;;;;;;;;;;;;;;;9.95;100.00;100179.91;4992956;28;19918;-71
2024/02/26 08:39:26;;;;;;;;;;;;;;;10.08;100.00;100190.66;4992992;28;19968;-69
2024/02/26 08:41:52;;;;;;;;;;;;;;;10.25;100.00;100178.34;4993579;28;19922;-71
2024/02/26 08:44:17;;;;;;;;;;;;;;;10.43;100.00;100186.72;4992695;28;19914;-69
2024/02/26 08:46:42;;;;;;;;;;;;;;;10.65;100.00;100183.16;4992845;28;19921;-68
2024/02/26 08:49:08;;;;;;;;;;;;;;;10.75;100.00;100184.28;4992853;28;20500;-72
2024/02/26 08:51:33;;;;;;;;;;;;;;;10.94;100.00;100188.34;4992586;28;20428;-70
2024/02/26 08:53:58;;;;;;;;;;;;;;;11.04;100.00;100179.16;4992805;28;20266;-70
2024/02/26 08:56:24;;;;;;;;;;;;;;;11.15;100.00;100185.53;4992840;28;19917;-70
2024/02/26 08:58:51;;;;;;;;;;;;;;;11.32;100.00;100185.16;4993040;28;19910;-70
2024/02/26 09:01:17;;;;;;;;;;;;;;;11.42;100.00;100188.88;4992478;28;20385;-71
2024/02/26 09:03:42;;;;;;;;;;;;;;;11.52;100.00;100171.94;4991859;28;19914;-70
2024/02/26 09:06:07;;;;;;;;;;;;;;;11.54;100.00;100159.91;4992943;28;19960;-72
2024/02/26 09:08:33;;;;;;;;;;;;;;;11.61;100.00;100157.56;4992348;28;19917;-70
2024/02/26 09:10:58;;;;;;;;;;;;;;;11.67;100.00;100153.38;4992375;28;20000;-70
2024/02/26 09:13:24;;;;;;;;;;;;;;;11.73;100.00;100149.25;4992535;28;20415;-70
2024/02/26 09:15:49;;;;;;;;;;;;;;;11.84;100.00;100148.66;4992340;28;20365;-70
2024/02/26 09:18:14;;;;;;;;;;;;;;;12.00;100.00;100137.03;4992121;28;19983;-70
2024/02/26 09:20:40;;;;;;;;;;;;;;;11.95;100.00;100136.88;4992411;28;20064;-70
2024/02/26 09:23:05;;;;;;;;;;;;;;;11.96;100.00;100134.38;4989848;28;20333;-69
2024/02/26 09:25:31;;;;;;;;;;;;;;;12.12;100.00;100139.94;4991826;28;19926;-69
2024/02/26 09:27:56;;;;;;;;;;;;;;;12.19;100.00;100134.06;4991304;28;20004;-71
2024/02/26 09:30:22;;;;;;;;;;;;;;;12.28;100.00;100141.19;4992231;28;19985;-69
2024/02/26 09:32:48;;;;;;;;;;;;;;;12.34;100.00;100146.53;4990819;28;19957;-68
2024/02/26 09:35:13;;;;;;;;;;;;;;;12.42;100.00;100144.09;4991656;28;19918;-69
2024/02/26 09:37:38;;;;;;;;;;;;;;;12.45;100.00;100137.28;4991556;28;19925;-72
2024/02/26 09:40:05;;;;;;;;;;;;;;;12.45;100.00;100147.66;4991912;28;20305;-73
2024/02/26 09:42:32;;;;;;;;;;;;;;;12.52;100.00;100142.63;4980139;28;19941;-70
2024/02/26 09:45:01;;;;;;;;;;;;;;;12.61;100.00;100137.66;4988961;28;19918;-69
2024/02/26 09:47:28;;;;;;;;;;;;;;;12.60;100.00;100134.19;4990999;28;19917;-70
2024/02/26 09:49:56;;;;;;;;;;;;;;;12.66;100.00;100136.06;4991951;28;19957;-71
2024/02/26 09:52:21;;;;;;;;;;;;;;;12.73;100.00;100137.94;4990860;28;19929;-70
2024/02/26 09:54:47;;;;;;;;;;;;;;;12.81;100.00;100139.81;4991283;28;19921;-69
2024/02/26 09:57:15;;;;;;;;;;;;;;;12.58;100.00;100086.66;4989939;28;20488;-72
2024/02/26 09:59:41;;;;;;;;;;;;;;;12.93;100.00;100138.41;4991793;28;19956;-74
2024/02/26 10:02:12;;;;;;;;;;;;;;;13.00;100.00;100135.94;4989616;28;19917;-73
2024/02/26 10:04:38;;;;;;;;;;;;;;;13.03;100.00;100134.25;4990073;28;20391;-70
2024/02/26 10:07:04;;;;;;;;;;;;;;;13.01;100.00;100130.78;4973958;28;19932;-71
2024/02/26 10:09:31;;;;;;;;;;;;;;;13.03;100.00;100123.91;4977268;28;20016;-72
2024/02/26 10:11:56;;;;;;;;;;;;;;;13.09;100.00;100126.63;4990954;28;19924;-73
2024/02/26 10:14:22;;;;;;;;;;;;;;;13.14;100.00;100124.13;4987365;28;19918;-74
2024/02/26 10:16:48;;;;;;;;;;;;;;;13.10;100.00;100125.78;4989419;28;20632;-72
2024/02/26 10:19:24;;;;;;;;;;;;;;;13.20;100.00;100121.66;4990720;28;19926;-72
2024/02/26 10:21:52;;;;;;;;;;;;;;;13.28;100.00;100114.03;4988102;28;19924;-70
2024/02/26 10:24:18;;;;;;;;;;;;;;;13.37;100.00;100124.66;4991160;28;19916;-70
2024/02/26 10:26:46;;;;;;;;;;;;;;;13.53;100.00;100123.22;4991563;28;19921;-70
2024/02/26 10:29:12;;;;;;;;;;;;;;;13.70;100.00;100118.34;4990854;28;19944;-70
2024/02/26 10:31:37;;;;;;;;;;;;;;;13.81;100.00;100113.38;4990827;28;19922;-70
2024/02/26 10:34:03;;;;;;;;;;;;;;;13.86;100.00;100113.44;4990926;28;20000;-71
2024/02/26 10:36:28;;;;;;;;;;;;;;;13.89;100.00;100108.31;4991157;28;19967;-70
2024/02/26 10:38:54;;;;;;;;;;;;;;;13.92;100.00;100113.56;4990879;28;19921;-70
2024/02/26 10:41:20;;;;;;;;;;;;;;;13.95;100.00;100105.81;4991558;28;19924;-70
2024/02/26 10:43:47;;;;;;;;;;;;;;;13.94;100.00;100101.47;4990871;28;19917;-71
2024/02/26 10:46:12;;;;;;;;;;;;;;;13.95;100.00;100100.63;4991207;28;19971;-71
2024/02/26 10:48:37;;;;;;;;;;;;;;;13.97;100.00;100101.53;4990742;28;19918;-70
2024/02/26 10:51:03;;;;;;;;;;;;;;;13.98;100.00;100105.88;4990814;28;19924;-69
2024/02/26 10:53:31;;;;;;;;;;;;;;;14.02;100.00;100106.81;4965133;28;20408;-70
2024/02/26 10:56:03;;;;;;;;;;;;;;;13.95;100.00;100104.94;4990883;28;19918;-70
2024/02/26 10:58:29;;;;;;;;;;;;;;;14.06;100.00;100100.81;4990532;28;19918;-70
2024/02/26 11:00:56;;;;;;;;;;;;;;;14.15;100.00;100097.50;4990375;28;20424;-69
2024/02/26 11:03:22;;;;;;;;;;;;;;;14.20;100.00;100093.25;4990833;28;19918;-70
2024/02/26 11:05:50;;;;;;;;;;;;;;;14.27;100.00;100095.09;4991608;28;19936;-73
2024/02/26 11:08:21;;;;;;;;;;;;;;;14.29;100.00;100088.19;4991280;28;20447;-71
2024/02/26 11:10:52;;;;;;;;;;;;;;;14.36;100.00;100079.66;4990622;28;20049;-69
2024/02/26 11:13:18;;;;;;;;;;;;;;;14.43;100.00;100085.81;4987032;28;19972;-70
2024/02/26 11:15:47;;;;;;;;;;;;;;;14.42;100.00;100085.78;4989975;28;20337;-72
2024/02/26 11:18:13;;;;;;;;;;;;;;;14.38;100.00;100084.84;4988604;28;19984;-70
2024/02/26 11:20:39;;;;;;;;;;;;;;;14.43;100.00;100085.81;4990040;28;19922;-73
2024/02/26 11:23:04;;;;;;;;;;;;;;;14.50;100.00;100087.63;4989921;28;20413;-70
2024/02/26 11:25:31;;;;;;;;;;;;;;;14.49;98.27;100079.84;4990354;28;20001;-72
2024/02/26 11:28:01;;;;;;;;;;;;;;;14.56;98.73;100087.72;4994353;28;20549;-69
2024/02/26 11:30:28;;;;;;;;;;;;;;;14.62;98.54;100084.34;4993793;28;19926;-73
2024/02/26 11:32:54;;;;;;;;;;;;;;;14.70;97.96;100075.00;4969922;28;19920;-70
2024/02/26 11:35:20;;;;;;;;;;;;;;;14.71;98.40;100078.44;4994252;28;19914;-70
2024/02/26 11:37:56;;;;;;;;;;;;;;;14.74;98.77;100064.63;4994200;28;19925;-72
2024/02/26 11:40:23;;;;;;;;;;;;;;;14.73;97.71;100066.38;4991535;28;19976;-69
2024/02/26 11:42:50;;;;;;;;;;;;;;;14.80;98.02;100060.38;4993687;28;20029;-70
2024/02/26 11:45:34;;;;;;;;;;;;;;;14.80;96.69;100047.38;4993390;28;19925;-71
2024/02/26 11:48:01;;;;;;;;;;;;;;;14.79;95.93;100044.75;4989754;28;20008;-70
2024/02/26 11:50:35;;;;;;;;;;;;;;;14.80;96.43;100042.19;4994219;28;19964;-71
2024/02/26 11:53:19;;;;;;;;;;;;;;;14.87;95.37;100045.75;4993434;28;19945;-71
2024/02/26 11:55:45;;;;;;;;;;;;;;;14.95;95.48;100044.09;4992986;28;19917;-70
2024/02/26 11:58:10;;;;;;;;;;;;;;;14.99;95.08;100040.69;4993296;28;20365;-70
2024/02/26 12:00:36;;;;;;;;;;;;;;;15.09;94.87;100039.09;4993351;28;19921;-73
2024/02/26 12:03:05;;;;;;;;;;;;;;;15.12;94.81;100038.25;4993767;28;20427;-70
2024/02/26 12:05:31;;;;;;;;;;;;;;;15.16;92.92;100030.47;4992099;28;19944;-69
2024/02/26 12:08:00;;;;;;;;;;;;;;;15.22;92.82;100027.09;4993987;28;19913;-68
2024/02/26 12:10:26;;;;;;;;;;;;;;;15.22;93.14;100026.22;4992835;28;20000;-70
2024/02/26 12:12:59;;;;;;;;;;;;;;;15.22;91.82;100024.47;4992923;28;19924;-70
2024/02/26 12:15:29;;;;;;;;;;;;;;;15.24;93.61;100025.38;4989606;28;20355;-69
2024/02/26 12:17:56;;;;;;;;;;;;;;;15.31;92.08;100026.31;4991654;28;19995;-69
2024/02/26 12:20:21;;;;;;;;;;;;;;;15.44;91.88;100029.91;4992723;28;19971;-68
2024/02/26 12:22:48;;;;;;;;;;;;;;;15.42;91.48;100023.81;4992269;28;20368;-70
2024/02/26 12:25:13;;;;;;;;;;;;;;;15.44;91.05;100029.91;4994047;28;19937;-68
2024/02/26 12:27:39;;;;;;;;;;;;;;;15.49;91.39;100025.63;4993088;28;20375;-68
2024/02/26 12:30:06;;;;;;;;;;;;;;;15.53;89.70;100022.19;4992888;28;20381;-66